Time;durP1;ratioP1;P1;durP2;ratioP2;P2;SDS_P1;SDS_P2;PMS_P1;PMS_P2;Temp;Humidity;BMP_temperature;BMP_pressure;BME280_temperature;BME280_humidity;BME280_pressure;Samples;Min_cycle;Max_cycle;Signal;HPM_P1;HPM_P2
2022/05/12 00:00:30;;;;;;;10.88;3.03;;;;;;;16.30;89.53;101073.69;4989276;28;20783;-72
2022/05/12 00:02:56;;;;;;;12.02;2.13;;;;;;;16.27;89.35;101077.47;5002604;28;20029;-72
2022/05/12 00:05:22;;;;;;;9.32;2.58;;;;;;;16.24;89.95;101077.88;5003640;28;20472;-72
2022/05/12 00:07:47;;;;;;;9.65;2.70;;;;;;;16.21;89.69;101080.03;4997017;28;20033;-72
2022/05/12 00:10:17;;;;;;;10.52;2.63;;;;;;;16.17;89.81;101089.28;5006120;28;20022;-73
2022/05/12 00:12:43;;;;;;;8.48;2.65;;;;;;;16.05;89.90;101094.16;4993147;28;20029;-73
2022/05/12 00:15:14;;;;;;;8.90;2.92;;;;;;;16.04;89.91;101092.56;5010477;28;20025;-72
2022/05/12 00:17:41;;;;;;;8.60;2.35;;;;;;;15.97;89.54;101095.06;5008315;28;20030;-72
2022/05/12 00:20:07;;;;;;;11.30;2.95;;;;;;;15.96;90.13;101088.25;5006911;28;20033;-72
2022/05/12 00:22:33;;;;;;;9.25;3.00;;;;;;;15.96;89.83;101101.31;4996457;28;20083;-72
2022/05/12 00:24:59;;;;;;;9.88;3.15;;;;;;;15.92;89.51;101097.47;5012807;28;20112;-72
2022/05/12 00:27:24;;;;;;;6.60;2.60;;;;;;;15.92;89.33;101108.72;4990446;28;20034;-72
2022/05/12 00:29:50;;;;;;;8.68;3.42;;;;;;;15.92;88.97;101113.16;4996597;28;20112;-72
2022/05/12 00:32:15;;;;;;;7.10;3.47;;;;;;;15.86;89.17;101117.31;5008415;28;20149;-72
2022/05/12 00:34:41;;;;;;;7.65;2.90;;;;;;;15.81;88.96;101113.63;5008249;28;20029;-72
2022/05/12 00:37:08;;;;;;;5.97;3.08;;;;;;;15.75;88.86;101121.19;4998281;28;20151;-72
2022/05/12 00:39:34;;;;;;;4.85;2.90;;;;;;;15.79;87.00;101126.06;4991607;28;20037;-72
2022/05/12 00:42:00;;;;;;;12.13;3.08;;;;;;;15.69;86.99;101132.34;4992049;28;20045;-72
2022/05/12 00:44:25;;;;;;;11.20;3.25;;;;;;;15.61;86.89;101136.84;4991253;28;20141;-72
2022/05/12 00:46:53;;;;;;;11.50;3.17;;;;;;;15.63;86.31;101140.88;4992360;28;20029;-72
2022/05/12 00:49:33;;;;;;;10.13;3.42;;;;;;;15.57;85.75;101139.00;4987550;28;20037;-72
2022/05/12 00:52:06;;;;;;;8.75;3.47;;;;;;;15.49;86.37;101139.09;5008781;28;20042;-72
2022/05/12 00:54:59;;;;;;;5.20;3.33;;;;;;;15.36;86.26;101148.38;4993424;28;20041;-72
2022/05/12 00:57:38;;;;;;;8.32;3.95;;;;;;;15.29;86.41;101157.91;5007178;28;20064;-72
2022/05/12 01:00:07;;;;;;;12.95;3.42;;;;;;;15.19;86.58;101159.97;5006485;28;20553;-72
2022/05/12 01:02:34;;;;;;;9.88;3.92;;;;;;;15.11;85.21;101162.66;4987268;28;20483;-72
2022/05/12 01:05:00;;;;;;;7.07;3.78;;;;;;;15.06;85.11;101162.38;5008067;28;20077;-72
2022/05/12 01:07:26;;;;;;;6.18;4.05;;;;;;;14.91;85.85;101165.75;5008756;28;20445;-72
2022/05/12 01:09:52;;;;;;;9.15;4.30;;;;;;;14.90;85.44;101171.97;4975331;28;20025;-72
2022/05/12 01:12:19;;;;;;;14.50;4.47;;;;;;;14.81;85.50;101183.47;5001852;28;20038;-72
2022/05/12 01:14:44;;;;;;;7.80;3.47;;;;;;;14.77;85.44;101176.97;4992162;28;20037;-71
2022/05/12 01:17:10;;;;;;;12.20;4.20;;;;;;;14.63;84.82;101177.72;4991109;28;20526;-72
2022/05/12 01:19:38;;;;;;;6.80;3.70;;;;;;;14.60;84.83;101179.69;4992020;28;20033;-71
2022/05/12 01:22:08;;;;;;;9.43;3.78;;;;;;;14.51;85.08;101179.88;4992792;28;20042;-71
2022/05/12 01:24:40;;;;;;;14.68;4.85;;;;;;;14.53;84.80;101193.56;5005380;28;20045;-71
2022/05/12 01:27:25;;;;;;;12.25;4.35;;;;;;;14.45;85.45;101193.59;4988792;28;20112;-72
2022/05/12 01:29:58;;;;;;;7.95;3.45;;;;;;;14.41;85.57;101200.97;5005811;28;20091;-71
2022/05/12 01:32:26;;;;;;;10.57;4.40;;;;;;;14.43;85.44;101195.56;5009907;28;20037;-72
2022/05/12 01:34:54;;;;;;;6.18;3.42;;;;;;;14.39;85.78;101201.16;4996670;28;20026;-71
2022/05/12 01:37:21;;;;;;;7.35;4.03;;;;;;;14.41;85.24;101209.63;4993172;28;20030;-72
2022/05/12 01:39:47;;;;;;;7.78;3.60;;;;;;;14.35;85.74;101225.94;4994696;28;20029;-71
2022/05/12 01:42:13;;;;;;;9.57;3.75;;;;;;;14.31;85.61;101221.22;4986998;28;20029;-71
2022/05/12 01:44:40;;;;;;;9.73;4.10;;;;;;;14.27;85.69;101225.16;5011769;28;20377;-71
2022/05/12 01:47:07;;;;;;;8.77;3.85;;;;;;;14.21;85.59;101235.28;4995232;28;20033;-71
2022/05/12 01:49:33;;;;;;;3.92;3.33;;;;;;;14.21;85.13;101237.91;5011841;28;20736;-71
2022/05/12 01:52:01;;;;;;;9.02;4.07;;;;;;;14.13;85.60;101239.75;5007129;28;20094;-71
2022/05/12 01:54:28;;;;;;;5.68;3.33;;;;;;;14.09;85.79;101243.63;4993038;28;20034;-71
2022/05/12 01:56:53;;;;;;;10.32;4.15;;;;;;;14.01;85.74;101257.50;5007690;28;20030;-72
2022/05/12 01:59:19;;;;;;;9.75;3.40;;;;;;;13.96;85.52;101260.63;5009432;28;20492;-71
2022/05/12 02:01:47;;;;;;;4.82;3.13;;;;;;;13.92;85.35;101269.78;4996214;28;20411;-71
2022/05/12 02:04:13;;;;;;;7.15;3.00;;;;;;;13.85;85.01;101278.44;4991470;28;20065;-72
2022/05/12 02:06:39;;;;;;;7.97;3.05;;;;;;;13.74;85.10;101269.16;5013507;28;20052;-72
2022/05/12 02:09:05;;;;;;;10.40;2.55;;;;;;;13.70;85.50;101280.91;4974989;28;20608;-71
2022/05/12 02:11:31;;;;;;;7.20;2.65;;;;;;;13.68;85.56;101282.84;5008336;28;20060;-71
2022/05/12 02:13:58;;;;;;;7.70;2.92;;;;;;;13.67;85.69;101291.63;5004715;28;20693;-72
2022/05/12 02:16:25;;;;;;;6.40;2.72;;;;;;;13.63;85.51;101291.16;4989521;28;20117;-71
2022/05/12 02:18:52;;;;;;;5.30;2.97;;;;;;;13.56;85.63;101290.16;5007534;28;20034;-71
2022/05/12 02:21:18;;;;;;;8.40;3.22;;;;;;;13.52;85.53;101297.50;4994501;28;20041;-72
2022/05/12 02:23:43;;;;;;;4.78;2.20;;;;;;;13.46;85.76;101298.16;4990336;28;20032;-71
2022/05/12 02:26:09;;;;;;;7.60;2.72;;;;;;;13.36;85.07;101305.31;5013989;28;20038;-71
2022/05/12 02:28:34;;;;;;;8.55;2.58;;;;;;;13.30;84.93;101303.31;4972049;28;20044;-71
2022/05/12 02:31:00;;;;;;;6.47;2.25;;;;;;;13.31;84.93;101312.81;5010370;28;20037;-71
2022/05/12 02:33:25;;;;;;;6.57;2.10;;;;;;;13.33;84.74;101319.47;5017810;28;20399;-71
2022/05/12 02:35:51;;;;;;;5.65;2.20;;;;;;;13.33;84.55;101318.66;5004033;28;20025;-71
2022/05/12 02:38:16;;;;;;;3.92;2.05;;;;;;;13.35;84.19;101319.31;4967038;28;20144;-71
2022/05/12 02:40:42;;;;;;;7.25;2.22;;;;;;;13.35;83.65;101320.13;5024882;22;20046;-68
2022/05/12 02:43:23;;;;;;;7.20;2.10;;;;;;;13.37;83.39;101325.16;5024016;28;20426;-72
2022/05/12 02:46:01;;;;;;;4.65;2.47;;;;;;;13.37;83.14;101327.78;5022855;28;20147;-72
2022/05/12 02:48:33;;;;;;;6.70;1.92;;;;;;;13.32;83.08;101320.47;5020450;28;20403;-72
2022/05/12 02:50:59;;;;;;;3.67;1.85;;;;;;;13.28;83.09;101326.94;5022430;28;20037;-72
2022/05/12 02:53:26;;;;;;;10.00;2.40;;;;;;;13.28;83.07;101331.31;5021401;28;20029;-72
2022/05/12 02:55:51;;;;;;;4.63;2.08;;;;;;;13.22;83.07;101328.41;5001245;28;20040;-73
2022/05/12 02:58:17;;;;;;;5.90;2.00;;;;;;;13.14;83.53;101332.75;5020741;28;20029;-72
2022/05/12 03:00:43;;;;;;;6.63;2.38;;;;;;;13.11;83.71;101333.91;5018293;28;20591;-72
2022/05/12 03:03:09;;;;;;;5.47;2.28;;;;;;;13.11;83.61;101340.88;5020692;28;20487;-72
2022/05/12 03:05:36;;;;;;;8.48;2.40;;;;;;;13.08;83.60;101343.81;5017086;28;20029;-72
2022/05/12 03:08:02;;;;;;;4.65;2.50;;;;;;;13.06;83.44;101341.38;5021191;28;20041;-72
2022/05/12 03:10:28;;;;;;;5.45;2.15;;;;;;;13.04;83.46;101346.72;5020753;28;20495;-72
2022/05/12 03:12:54;;;;;;;5.10;2.83;;;;;;;13.00;83.60;101345.41;5021263;28;20061;-72
2022/05/12 03:15:20;;;;;;;7.47;3.00;;;;;;;12.96;83.82;101354.53;5021174;28;20142;-72
2022/05/12 03:17:45;;;;;;;6.85;2.55;;;;;;;12.90;84.12;101355.13;5020338;28;20041;-72
2022/05/12 03:20:15;;;;;;;3.72;2.53;;;;;;;12.83;84.41;101354.97;5017473;28;20080;-72
2022/05/12 03:22:41;;;;;;;7.13;2.28;;;;;;;12.80;84.48;101354.47;5016321;28;20037;-72
2022/05/12 03:25:09;;;;;;;4.57;2.63;;;;;;;12.77;84.33;101359.97;5023596;28;20517;-72
2022/05/12 03:27:35;;;;;;;6.68;2.80;;;;;;;12.73;84.50;101374.28;5021817;28;20048;-72
2022/05/12 03:30:01;;;;;;;6.07;2.65;;;;;;;12.65;84.41;101362.84;5022142;28;20072;-72
2022/05/12 03:32:26;;;;;;;4.00;2.45;;;;;;;12.56;84.70;101368.97;5017492;28;20038;-73
2022/05/12 03:34:52;;;;;;;9.13;2.90;;;;;;;12.52;85.38;101372.88;5022040;28;20048;-73
2022/05/12 03:37:17;;;;;;;6.88;2.85;;;;;;;12.50;85.36;101369.59;5004690;28;20029;-72
2022/05/12 03:39:44;;;;;;;8.70;2.78;;;;;;;12.49;84.99;101373.19;5016132;28;20099;-72
2022/05/12 03:42:15;;;;;;;6.10;3.00;;;;;;;12.44;85.04;101372.84;5020875;28;20051;-72
2022/05/12 03:44:46;;;;;;;5.13;2.92;;;;;;;12.40;85.28;101379.31;5007421;28;20033;-72
2022/05/12 03:47:14;;;;;;;8.65;3.22;;;;;;;12.31;85.51;101381.03;5017934;28;20783;-71
2022/05/12 03:49:41;;;;;;;7.28;2.90;;;;;;;12.26;85.93;101388.47;5005222;28;20091;-72
2022/05/12 03:52:07;;;;;;;6.85;3.03;;;;;;;12.21;86.15;101395.94;5017990;28;20530;-72
2022/05/12 03:54:32;;;;;;;6.82;3.30;;;;;;;12.16;86.44;101388.56;5019016;28;20628;-72
2022/05/12 03:56:58;;;;;;;8.52;3.00;;;;;;;12.12;86.67;101391.66;5026421;28;20029;-72
2022/05/12 03:59:23;;;;;;;13.45;3.35;;;;;;;12.10;86.77;101399.59;5028698;28;20044;-72
2022/05/12 04:01:49;;;;;;;8.07;3.38;;;;;;;12.11;86.94;101405.59;5027493;28;20083;-72
2022/05/12 04:04:14;;;;;;;8.30;4.28;;;;;;;12.11;87.06;101403.00;5021892;28;20479;-72
2022/05/12 04:06:40;;;;;;;6.90;3.55;;;;;;;12.05;87.31;101405.25;5024738;28;20755;-72
2022/05/12 04:09:06;;;;;;;6.55;3.88;;;;;;;12.02;87.48;101412.53;5023858;28;20029;-72
2022/05/12 04:11:31;;;;;;;6.82;3.08;;;;;;;12.01;87.46;101422.09;5023448;28;20033;-72
2022/05/12 04:13:57;;;;;;;12.25;3.70;;;;;;;12.03;87.54;101427.97;5025976;28;20041;-73
2022/05/12 04:16:23;;;;;;;8.38;3.30;;;;;;;12.03;87.39;101437.53;5025315;28;20018;-72
2022/05/12 04:18:48;;;;;;;10.43;3.50;;;;;;;12.04;87.69;101436.59;5022493;28;20615;-72
2022/05/12 04:21:16;;;;;;;7.47;3.38;;;;;;;12.08;87.73;101430.94;5022182;28;20032;-72
2022/05/12 04:23:43;;;;;;;7.32;4.35;;;;;;;12.12;87.12;101433.25;5025135;28;20224;-72
2022/05/12 04:26:10;;;;;;;9.27;4.68;;;;;;;12.15;86.87;101430.31;5023446;28;20037;-72
2022/05/12 04:28:37;;;;;;;10.25;4.53;;;;;;;12.14;87.00;101436.50;5020750;28;20037;-72
2022/05/12 04:31:02;;;;;;;7.63;3.75;;;;;;;12.14;87.09;101439.09;5007665;28;20029;-72
2022/05/12 04:36:13;;;;;;;14.32;3.75;;;;;;;12.12;87.34;101447.03;5020890;28;20029;-72
2022/05/12 04:38:39;;;;;;;9.48;3.60;;;;;;;12.09;88.03;101457.72;5022647;28;20048;-72
2022/05/12 04:41:04;;;;;;;7.35;3.60;;;;;;;12.06;88.16;101455.44;5023040;28;20029;-72
2022/05/12 04:43:30;;;;;;;7.97;3.33;;;;;;;12.09;88.11;101460.31;5023791;28;20037;-72
2022/05/12 04:45:56;;;;;;;9.57;3.55;;;;;;;12.11;88.50;101466.22;5023601;28;20160;-73
2022/05/12 04:48:21;;;;;;;9.55;3.67;;;;;;;12.13;88.16;101469.50;5024825;28;20045;-72
2022/05/12 04:50:47;;;;;;;7.25;3.10;;;;;;;12.19;87.84;101479.28;5023586;28;20029;-72
2022/05/12 04:53:12;;;;;;;7.22;3.65;;;;;;;12.20;88.01;101478.28;5024284;28;20030;-72
2022/05/12 04:55:38;;;;;;;8.48;3.65;;;;;;;12.25;87.78;101480.47;5020961;28;20439;-72
2022/05/12 04:58:04;;;;;;;9.32;3.70;;;;;;;12.25;87.84;101483.88;5023685;28;20519;-72
2022/05/12 05:00:36;;;;;;;7.65;3.13;;;;;;;12.26;87.99;101485.53;5023868;28;20044;-73
2022/05/12 05:03:02;;;;;;;9.15;4.32;;;;;;;12.27;88.53;101491.53;5025243;28;20495;-72
2022/05/12 05:05:28;;;;;;;8.95;3.97;;;;;;;12.29;88.72;101491.38;5023835;28;20032;-72
2022/05/12 05:07:54;;;;;;;10.13;4.15;;;;;;;12.30;88.85;101491.25;5019125;28;20033;-72
2022/05/12 05:10:19;;;;;;;13.00;4.60;;;;;;;12.33;89.15;101503.13;5022480;28;20384;-72
2022/05/12 05:12:45;;;;;;;9.90;3.97;;;;;;;12.36;89.56;101501.03;5039539;28;20579;-71
2022/05/12 05:15:12;;;;;;;13.80;4.18;;;;;;;12.44;88.91;101500.28;5025973;28;20029;-72
2022/05/12 05:17:38;;;;;;;12.98;4.57;;;;;;;12.48;88.61;101506.00;5023592;28;20137;-72
2022/05/12 05:20:06;;;;;;;14.82;4.25;;;;;;;12.52;88.42;101510.72;5023779;28;20049;-72
2022/05/12 05:22:33;;;;;;;8.77;4.22;;;;;;;12.52;88.21;101515.13;5022767;28;20451;-72
2022/05/12 05:24:59;;;;;;;14.23;4.38;;;;;;;12.53;88.06;101514.97;5036975;28;20041;-71
2022/05/12 05:27:24;;;;;;;17.55;5.95;;;;;;;12.46;88.20;101527.75;5024028;28;20037;-72
2022/05/12 05:29:51;;;;;;;15.43;3.97;;;;;;;12.51;88.18;101529.94;5022725;28;20405;-71
2022/05/12 05:32:17;;;;;;;16.27;3.70;;;;;;;12.59;88.44;101526.56;5023437;28;20049;-72
2022/05/12 05:34:42;;;;;;;9.20;3.75;;;;;;;12.64;88.48;101532.94;5022066;28;20026;-73
2022/05/12 05:37:08;;;;;;;16.33;5.18;;;;;;;12.71;88.64;101529.72;5023499;28;20029;-72
2022/05/12 05:39:35;;;;;;;15.95;4.90;;;;;;;12.76;88.21;101527.50;5020956;28;20029;-72
2022/05/12 05:42:09;;;;;;;15.43;5.90;;;;;;;12.80;88.27;101537.44;5019028;28;20116;-71
2022/05/12 05:44:34;;;;;;;12.68;5.40;;;;;;;12.91;88.09;101538.97;5041291;28;20053;-71
2022/05/12 05:47:01;;;;;;;16.10;4.38;;;;;;;13.10;87.78;101544.94;5022662;28;20033;-72
2022/05/12 05:49:28;;;;;;;12.20;5.05;;;;;;;13.50;86.67;101546.94;5023439;28;20025;-71
2022/05/12 05:54:38;;;;;;;14.20;6.07;;;;;;;14.22;83.37;101559.50;5023299;28;20079;-72
2022/05/12 05:57:04;;;;;;;15.60;5.70;;;;;;;14.52;81.84;101558.09;5024354;28;20496;-71
2022/05/12 05:59:30;;;;;;;22.63;6.40;;;;;;;14.83;80.87;101561.84;5022067;28;20045;-71
2022/05/12 06:01:56;;;;;;;20.27;7.38;;;;;;;15.05;80.13;101565.53;5019911;28;20451;-72
2022/05/12 06:04:22;;;;;;;18.52;7.75;;;;;;;15.34;79.21;101564.97;5020140;28;20061;-71
2022/05/12 06:06:47;;;;;;;20.33;8.18;;;;;;;15.61;76.95;101562.91;5021543;28;20111;-71
2022/05/12 06:09:14;;;;;;;21.85;9.25;;;;;;;15.77;76.92;101563.66;5018681;28;20515;-69
2022/05/12 06:11:42;;;;;;;22.23;8.85;;;;;;;16.10;75.55;101568.69;5020912;28;20022;-72
2022/05/12 06:14:08;;;;;;;26.20;10.60;;;;;;;16.16;75.72;101575.03;5022427;28;20083;-71
2022/05/12 06:16:35;;;;;;;17.73;9.18;;;;;;;16.48;74.13;101571.38;5021827;28;20400;-72
2022/05/12 06:19:01;;;;;;;19.85;9.07;;;;;;;16.80;72.26;101576.50;5018485;28;20294;-71
2022/05/12 06:21:26;;;;;;;22.58;10.70;;;;;;;16.83;72.38;101582.22;5023984;28;22154;-71
2022/05/12 06:23:52;;;;;;;25.20;11.13;;;;;;;16.96;72.42;101580.81;5018597;28;20042;-71
2022/05/12 06:26:17;;;;;;;28.10;12.23;;;;;;;17.01;72.27;101586.28;5024160;28;20087;-71
2022/05/12 06:28:47;;;;;;;26.90;11.80;;;;;;;17.24;70.57;101587.03;5025009;28;20038;-71
2022/05/12 06:31:24;;;;;;;21.48;11.52;;;;;;;17.31;71.07;101593.19;5020064;28;20504;-71
2022/05/12 06:33:53;;;;;;;23.15;11.95;;;;;;;17.38;70.40;101585.41;5022647;28;20049;-72
2022/05/12 06:36:19;;;;;;;26.33;12.20;;;;;;;17.45;70.38;101581.06;5021002;28;20025;-71
2022/05/12 06:38:45;;;;;;;26.63;12.93;;;;;;;17.10;70.41;101590.47;5020422;28;20195;-70
2022/05/12 06:41:11;;;;;;;25.50;12.50;;;;;;;17.31;69.99;101593.19;5022079;28;20032;-68
2022/05/12 06:43:37;;;;;;;28.10;13.25;;;;;;;17.47;70.51;101600.03;5020948;28;20048;-69
2022/05/12 06:46:03;;;;;;;30.00;12.95;;;;;;;17.55;69.65;101607.00;5023081;28;20029;-68
2022/05/12 06:48:29;;;;;;;25.40;10.55;;;;;;;17.48;69.52;101601.69;5015206;28;20022;-68
2022/05/12 06:50:54;;;;;;;28.27;12.40;;;;;;;17.61;69.32;101605.44;5021022;28;20042;-68
2022/05/12 06:53:20;;;;;;;25.00;12.15;;;;;;;17.88;67.33;101598.75;5025760;28;20045;-69
2022/05/12 06:55:46;;;;;;;30.48;12.75;;;;;;;18.07;66.07;101595.53;5023451;28;20072;-69
2022/05/12 06:58:17;;;;;;;25.17;12.13;;;;;;;18.46;65.68;101601.34;5024047;28;20032;-69
2022/05/12 07:00:42;;;;;;;25.42;11.98;;;;;;;18.67;64.04;101603.13;5022874;28;20048;-68
2022/05/12 07:03:09;;;;;;;22.42;11.38;;;;;;;18.90;63.88;101607.38;5007288;28;20029;-69
2022/05/12 07:05:34;;;;;;;22.77;11.35;;;;;;;19.12;62.28;101606.31;5022287;28;20037;-69
2022/05/12 07:08:00;;;;;;;24.67;12.70;;;;;;;19.53;60.75;101605.50;5025679;28;20510;-69
2022/05/12 07:10:26;;;;;;;23.10;11.48;;;;;;;19.27;61.94;101611.47;5023234;28;20083;-69
2022/05/12 07:12:52;;;;;;;19.92;11.27;;;;;;;19.51;62.02;101607.50;5022617;28;20029;-68
2022/05/12 07:15:18;;;;;;;26.63;12.88;;;;;;;19.82;60.21;101606.25;5022703;28;20038;-68
2022/05/12 07:17:44;;;;;;;20.77;11.02;;;;;;;20.19;58.19;101606.72;5021154;28;20044;-69
2022/05/12 07:28:28;;;;;;;26.42;12.60;;;;;;;19.85;61.90;101616.38;5023786;28;20060;-69
2022/05/12 07:31:03;;;;;;;20.48;9.93;;;;;;;20.27;59.09;101617.09;5023025;28;20033;-68
2022/05/12 07:33:34;;;;;;;24.55;10.35;;;;;;;20.58;57.18;101619.13;5017405;28;20410;-69
2022/05/12 07:36:02;;;;;;;20.23;9.63;;;;;;;21.09;55.14;101630.88;5035334;28;20045;-69
2022/05/12 07:38:27;;;;;;;12.68;6.80;;;;;;;21.01;54.85;101631.09;5023417;28;20021;-69
2022/05/12 07:40:53;;;;;;;13.02;8.20;;;;;;;20.38;57.11;101627.03;5015312;28;20037;-68
2022/05/12 07:43:19;;;;;;;13.15;7.13;;;;;;;20.40;56.60;101632.09;5021241;28;20033;-69
2022/05/12 07:45:45;;;;;;;14.15;7.95;;;;;;;20.59;56.65;101633.13;5016751;28;20038;-69
2022/05/12 07:48:11;;;;;;;23.10;11.77;;;;;;;20.80;55.62;101632.94;5020791;28;20052;-68
2022/05/12 07:50:38;;;;;;;14.20;7.10;;;;;;;21.19;54.96;101633.91;5021371;28;20025;-69
2022/05/12 07:53:04;;;;;;;15.93;7.47;;;;;;;21.83;53.29;101633.28;5021012;28;20041;-68
2022/05/12 07:55:29;;;;;;;10.45;7.40;;;;;;;21.29;52.75;101635.31;5017259;28;20045;-68
2022/05/12 07:57:55;;;;;;;11.75;5.93;;;;;;;21.43;52.33;101628.94;5019046;28;20048;-68
2022/05/12 08:00:20;;;;;;;17.92;7.75;;;;;;;21.78;52.80;101628.66;5020717;28;20076;-69
2022/05/12 08:02:46;;;;;;;16.95;7.72;;;;;;;22.17;51.52;101634.75;5023234;28;20048;-69
2022/05/12 08:05:11;;;;;;;16.00;8.07;;;;;;;22.64;50.84;101647.63;5020315;28;20033;-69
2022/05/12 08:07:37;;;;;;;13.15;6.63;;;;;;;22.27;50.20;101639.59;5020451;28;20208;-69
2022/05/12 08:10:05;;;;;;;12.35;6.35;;;;;;;22.43;49.37;101641.69;5021768;28;20026;-68
2022/05/12 08:12:32;;;;;;;10.00;5.05;;;;;;;23.04;47.66;101642.03;5019428;28;20033;-68
2022/05/12 08:14:57;;;;;;;9.13;5.53;;;;;;;22.60;49.24;101644.59;5021991;28;20112;-69
2022/05/12 08:17:23;;;;;;;15.90;6.30;;;;;;;22.65;47.86;101649.25;5006505;28;20273;-69
2022/05/12 08:19:48;;;;;;;16.60;6.80;;;;;;;22.01;49.11;101651.88;5001172;28;20041;-69
2022/05/12 08:22:14;;;;;;;8.85;5.85;;;;;;;21.93;51.68;101655.59;5023808;28;20463;-68
2022/05/12 08:24:39;;;;;;;10.35;5.70;;;;;;;20.99;52.47;101656.84;5019937;28;20128;-68
2022/05/12 08:27:05;;;;;;;12.80;5.97;;;;;;;21.25;52.08;101655.16;5020011;28;20026;-68
2022/05/12 08:29:31;;;;;;;10.55;6.78;;;;;;;21.25;53.14;101660.44;5023455;28;20040;-69
2022/05/12 08:31:56;;;;;;;10.02;5.60;;;;;;;21.85;52.73;101666.41;5022488;28;20053;-68
2022/05/12 08:34:22;;;;;;;11.48;7.75;;;;;;;21.17;52.42;101664.13;5021135;28;20029;-69
2022/05/12 08:36:49;;;;;;;10.80;6.57;;;;;;;21.55;53.00;101676.66;5021497;28;20041;-68
2022/05/12 08:39:16;;;;;;;13.15;7.68;;;;;;;21.23;50.66;101670.38;5022362;28;20033;-69
2022/05/12 08:44:20;;;;;;;12.43;7.47;;;;;;;21.16;52.49;101665.16;4944130;28;20067;-68
2022/05/12 08:46:49;;;;;;;17.15;7.50;;;;;;;22.07;50.82;101672.16;4928739;28;20049;-68
2022/05/12 08:49:20;;;;;;;12.30;7.20;;;;;;;22.37;50.27;101665.53;4939559;28;20031;-68
2022/05/12 08:52:13;;;;;;;16.65;8.05;;;;;;;22.71;50.16;101665.03;4945659;28;20043;-68
2022/05/12 08:54:40;;;;;;;;;;;;;;;23.16;48.94;101663.25;4948827;28;20074;-68
2022/05/12 08:57:09;;;;;;;11.30;5.68;;;;;;;22.90;47.60;101663.25;4945489;28;20289;-68
2022/05/12 08:59:38;;;;;;;10.93;5.22;;;;;;;23.31;46.73;101655.78;4957612;28;20028;-68
2022/05/12 09:02:09;;;;;;;7.32;5.07;;;;;;;23.06;47.17;101663.78;4945276;28;20062;-68
2022/05/12 09:04:43;;;;;;;83.93;11.00;;;;;;;22.09;47.23;101664.03;4946485;28;20054;-68
2022/05/12 09:07:27;;;;;;;9.60;4.75;;;;;;;22.55;47.11;101653.19;4947270;29;20035;-68
2022/05/12 09:10:10;;;;;;;26.30;5.70;;;;;;;22.37;47.81;101663.69;4943658;28;20493;-68
2022/05/12 09:12:54;;;;;;;;;;;;;;;21.56;49.40;101659.78;4946161;28;20535;-68
2022/05/12 09:15:28;;;;;;;63.95;8.98;;;;;;;22.19;48.14;101661.75;4944857;29;21584;-68
2022/05/12 09:18:00;;;;;;;12.20;5.53;;;;;;;22.53;48.31;101652.59;4942204;28;20043;-68
2022/05/12 09:20:34;;;;;;;13.63;5.32;;;;;;;23.14;46.98;101658.19;4945482;28;20050;-68
2022/05/12 09:23:00;;;;;;;12.60;5.85;;;;;;;23.06;45.65;101666.41;4962142;28;20201;-68
2022/05/12 09:25:48;;;;;;;11.50;4.32;;;;;;;22.28;47.30;101660.50;4946129;28;20038;-68
2022/05/12 09:28:33;;;;;;;54.85;8.68;;;;;;;21.68;47.73;101670.50;4950840;28;20070;-68
2022/05/12 09:31:15;;;;;;;60.28;6.07;;;;;;;21.33;49.63;101663.69;4944271;28;20046;-68
2022/05/12 09:33:42;;;;;;;20.38;4.97;;;;;;;21.37;50.10;101662.25;4944991;29;20041;-68
2022/05/12 09:36:15;;;;;;;14.52;3.80;;;;;;;21.51;49.47;101663.06;4943800;28;20046;-68
2022/05/12 09:38:44;;;;;;;7.60;3.28;;;;;;;21.53;47.72;101665.47;4947704;28;20545;-68
2022/05/12 09:41:16;;;;;;;9.82;4.40;;;;;;;20.92;49.73;101675.28;4944320;28;20031;-69
2022/05/12 09:43:41;;;;;;;11.63;4.90;;;;;;;20.82;51.51;101677.53;4966876;28;20043;-68
2022/05/12 09:46:16;;;;;;;13.65;4.40;;;;;;;21.12;50.31;101663.94;4964050;28;20027;-68
2022/05/12 09:48:42;;;;;;;7.25;3.60;;;;;;;20.96;50.06;101670.44;4962808;28;20047;-68
2022/05/12 09:51:21;;;;;;;7.13;3.15;;;;;;;21.46;50.51;101654.16;4963741;28;20041;-68
2022/05/12 09:53:49;;;;;;;5.97;2.83;;;;;;;22.27;46.97;101648.31;4962757;28;20043;-68
2022/05/12 09:56:35;;;;;;;8.98;3.53;;;;;;;22.82;45.06;101646.88;4964082;28;20749;-69
2022/05/12 09:59:25;;;;;;;7.82;2.90;;;;;;;22.76;46.22;101648.56;4977012;28;20177;-68
2022/05/12 10:02:00;;;;;;;6.38;2.15;;;;;;;22.57;44.61;101645.06;4949901;28;20043;-68
2022/05/12 10:10:22;;;;;;;6.43;2.95;;;;;;;22.24;46.32;101648.69;4962489;28;20066;-68
2022/05/12 10:13:20;;;;;;;7.82;1.92;;;;;;;22.59;42.36;101642.19;4961407;28;20449;-68
2022/05/12 10:15:48;;;;;;;5.55;2.03;;;;;;;22.14;42.99;101643.88;4976563;28;20050;-67
2022/05/12 10:18:28;;;;;;;9.20;2.53;;;;;;;21.75;45.57;101652.81;4963739;28;20039;-68
2022/05/12 10:20:56;;;;;;;6.85;2.15;;;;;;;21.99;45.62;101646.00;4946303;28;20523;-68
2022/05/12 10:23:24;;;;;;;7.28;1.83;;;;;;;22.01;46.17;101640.53;4962803;28;20039;-68
2022/05/12 10:25:59;;;;;;;5.93;2.40;;;;;;;22.11;44.75;101641.69;4962001;28;20058;-68
2022/05/12 10:28:28;;;;;;;8.73;2.15;;;;;;;22.15;45.33;101649.97;4957973;28;20035;-68
2022/05/12 10:31:31;;;;;;;11.82;2.97;;;;;;;22.10;44.31;101649.81;4960411;28;20153;-68
2022/05/12 10:34:18;;;;;;;6.43;2.22;;;;;;;22.23;46.21;101647.09;4974656;28;20089;-68
2022/05/12 10:37:08;;;;;;;8.52;2.35;;;;;;;22.49;46.00;101643.50;4961728;28;20031;-68
2022/05/12 10:39:52;;;;;;;7.85;2.20;;;;;;;22.48;45.76;101639.22;4977345;28;20571;-68
2022/05/12 10:42:30;;;;;;;11.93;2.80;;;;;;;22.01;45.88;101648.44;4962162;28;20404;-68
2022/05/12 10:45:12;;;;;;;12.80;2.72;;;;;;;22.28;45.63;101636.72;4961683;28;20038;-68
2022/05/12 10:48:00;;;;;;;8.10;2.00;;;;;;;22.25;40.21;101644.25;4959069;28;20485;-68
2022/05/12 10:51:04;;;;;;;7.53;1.80;;;;;;;22.15;42.76;101648.16;4976584;28;20042;-68
2022/05/12 10:53:35;;;;;;;9.27;1.63;;;;;;;21.90;40.89;101649.91;4958260;28;20714;-68
2022/05/12 10:56:09;;;;;;;6.85;1.52;;;;;;;21.90;41.45;101642.00;4961075;28;20039;-68
2022/05/12 10:58:50;;;;;;;4.72;1.48;;;;;;;21.82;41.73;101644.88;4960527;28;20030;-68
2022/05/12 11:01:25;;;;;;;6.28;1.88;;;;;;;21.61;43.54;101646.78;4961611;28;20066;-68
2022/05/12 11:03:59;;;;;;;8.82;1.92;;;;;;;21.64;43.89;101638.44;4974013;28;20038;-68
2022/05/12 11:06:30;;;;;;;5.28;1.85;;;;;;;21.89;44.84;101641.19;4962431;28;20070;-68
2022/05/12 11:09:34;;;;;;;5.43;1.70;;;;;;;22.19;43.82;101639.78;4975896;28;20116;-68
2022/05/12 11:12:30;;;;;;;7.07;1.77;;;;;;;22.42;42.05;101636.63;4958042;28;20043;-68
2022/05/12 11:15:02;;;;;;;8.02;2.08;;;;;;;22.26;42.18;101644.03;4960596;28;20046;-68
2022/05/12 11:17:41;;;;;;;6.15;1.90;;;;;;;22.45;43.01;101646.75;4961720;28;20077;-68
2022/05/12 11:20:23;;;;;;;7.50;1.85;;;;;;;22.67;42.58;101639.28;4959260;28;20050;-68
2022/05/12 11:23:12;;;;;;;6.30;1.77;;;;;;;23.01;42.23;101632.66;4974700;28;20657;-68
2022/05/12 11:26:00;;;;;;;5.50;2.00;;;;;;;22.92;43.29;101629.50;4930993;28;20078;-68
2022/05/12 11:32:01;;;;;;;4.03;1.52;;;;;;;22.22;40.79;101621.69;4961888;28;20046;-68
2022/05/12 11:34:28;;;;;;;4.60;1.50;;;;;;;21.92;41.81;101632.03;4959120;28;20531;-68
2022/05/12 11:36:55;;;;;;;8.10;1.23;;;;;;;22.07;42.18;101632.53;4962722;28;20515;-68
2022/05/12 11:39:54;;;;;;;4.40;1.83;;;;;;;22.64;40.73;101623.84;4975924;28;20027;-68
2022/05/12 11:42:26;;;;;;;6.90;1.98;;;;;;;22.69;43.90;101616.88;4971364;28;20039;-68
2022/05/12 11:45:08;;;;;;;6.85;2.45;;;;;;;22.75;40.66;101615.19;4959321;28;20031;-68
2022/05/12 11:47:49;;;;;;;6.00;2.00;;;;;;;22.87;42.14;101620.59;4945055;28;20054;-68
2022/05/12 11:50:32;;;;;;;19.45;8.40;;;;;;;22.83;40.68;101614.94;4942997;28;20083;-68
2022/05/12 11:53:23;;;;;;;7.60;2.10;;;;;;;22.87;38.16;101602.09;4941176;28;20047;-68
2022/05/12 11:56:01;;;;;;;5.88;1.48;;;;;;;23.03;40.90;101604.19;4954022;28;20038;-68
2022/05/12 11:59:08;;;;;;;8.75;1.98;;;;;;;23.05;41.61;101603.97;4943466;28;20077;-68